Tiempo atmosférico en la estación meteorológica de Salas, Asturias (240 m.)



Fecha
DESCASC
Temp. máxima en grados centígrados (hora)
DESCASC
Temp. mínima en grados centígrados (hora)
DESCASC
Temp. media en grados centígrados
DESCASC
Racha de viento máxima en m/sg (hora)
DESCASC
Velocidad máxima media en intervalos de 10 minutos(hora)
DESCASC
Precipitaciones diarias en mm
DESCASC
Precipitaciones de 00:00 a 06:00 en mm
DESCASC
Precipitaciones de 06:00 a 12:00 en mm
DESCASC
Precipitaciones de 12:00 a 18:00 en mm
DESCASC
Precipitaciones de 18:00 a 24:00 en mm
DESCASC

Gráficas

Temp. máximas Temp. mínimas Temp. medias Precipitaciones Rachas de viento máximas Velocidades máximas media en intervalos de 10 minutos

Datos horarios

Fecha y hora oficial Temperatura (ºC) Velocidad del viento (km/h) Dirección del viento Racha (km/h) Dirección de racha Precipitación (mm) Presión (hPa) Tendencia (hPa) Humedad (%)
2020-09-26 23:00:00 14.8 6 Sudoeste 18 Sudoeste 1.2 -- -- 98
2020-09-26 22:00:00 15 5 Sudoeste 18 Oeste 2 -- -- 97
2020-09-26 21:00:00 15.6 8 Sudoeste 18 Sudoeste 0.6 -- -- 93
2020-09-26 20:00:00 15.6 8 Sudoeste 33 Oeste 2.4 -- -- 96
2020-09-26 19:00:00 16.3 14 Oeste 29 Sudoeste 0.2 -- -- 87
2020-09-26 18:00:00 16.7 13 Sudoeste 28 Sudoeste 0 -- -- 82
2020-09-26 17:00:00 16.5 12 Sudoeste 33 Sudoeste 0 -- -- 81
2020-09-26 16:00:00 16.5 17 Sudoeste 37 Sudoeste 0 -- -- 78
2020-09-26 15:00:00 17.2 22 Sudoeste 40 Sudoeste 0 -- -- 72
2020-09-26 14:00:00 16.3 12 Sudoeste 27 Sudoeste 0 -- -- 74
2020-09-26 13:00:00 15.6 15 Sudoeste 31 Sudoeste 0 -- -- 76
2020-09-26 12:00:00 15.2 15 Sudoeste 34 Sudoeste 0 -- -- 76
2020-09-26 11:00:00 13.9 15 Sudoeste 29 Sur 0 -- -- 80
2020-09-26 10:00:00 13.1 15 Sudoeste 27 Sudoeste 0 -- -- 83
2020-09-26 09:00:00 12.3 13 Sudoeste 25 Oeste 0 -- -- 86
2020-09-26 08:00:00 12.1 10 Sudoeste 18 Oeste 0 -- -- 88
2020-09-26 07:00:00 12.2 11 Oeste 26 Oeste 0 -- -- 85
2020-09-26 06:00:00 11.6 15 Oeste 27 Sudoeste 0 -- -- 89
2020-09-26 05:00:00 11.1 9 Sudoeste 21 Sudoeste 0 -- -- 94
2020-09-26 04:00:00 10.9 8 Oeste 13 Oeste 0 -- -- 97
2020-09-26 03:00:00 10.8 4 Oeste 9 Sudoeste 0.4 -- -- 97
2020-09-26 02:00:00 11 4 Oeste 9 Oeste 0 -- -- 95
2020-09-26 01:00:00 11 3 Oeste 8 Oeste 0 -- -- 92
2020-09-26 00:00:00 10.7 4 Oeste 13 Oeste 0 -- -- 94
2020-09-25 23:00:00 10.6 6 Oeste 14 Sudoeste 0 -- -- 92
2020-09-25 22:00:00 10.8 5 Noroeste 12 Oeste 0 -- -- 93
2020-09-25 21:00:00 11.5 7 Oeste 12 Oeste 0.2 -- -- 94
2020-09-25 20:00:00 12.3 4 Noroeste 17 Sudoeste 0.2 -- -- 93
2020-09-25 19:00:00 12.7 7 Oeste 22 Sudoeste 0.2 -- -- 88
2020-09-25 18:00:00 14 9 Sudoeste 19 Noroeste 0 -- -- 82
2020-09-25 17:00:00 13.8 5 Norte 22 Oeste 0.8 -- -- 85
2020-09-25 16:00:00 15.1 12 Sudoeste 29 Sudoeste 0 -- -- 79
2020-09-25 15:00:00 13.3 4 Sudeste 28 Oeste 2 -- -- 89
2020-09-25 14:00:00 14.1 15 Sudoeste 30 Sudoeste 0.2 -- -- 80
2020-09-25 13:00:00 13.6 12 Sudoeste 28 Sudoeste 0 -- -- 78
2020-09-25 12:00:00 13.6 13 Oeste 28 Oeste 0.2 -- -- 80
2020-09-25 11:00:00 11.1 10 Sudoeste 23 Sur 1 -- -- 92
2020-09-25 10:00:00 10.3 8 Sudoeste 24 Sudoeste 2.8 -- -- 95
2020-09-25 09:00:00 9.8 9 Sudoeste 17 Sudoeste 2.2 -- -- 95
2020-09-25 08:00:00 9.5 12 Oeste 20 Sudoeste 1 -- -- 93
2020-09-25 07:00:00 9.5 9 Oeste 21 Sur 1.4 -- -- 94
2020-09-25 06:00:00 9.6 14 Sudoeste 22 Sudoeste 1.6 -- -- 92
2020-09-25 05:00:00 10 15 Sudoeste 30 Sudoeste 1.4 -- -- 88
2020-09-25 04:00:00 9.9 3 Noroeste 18 Sudoeste 1.8 -- -- 93
2020-09-25 03:00:00 11.1 9 Oeste 23 Sudoeste 0.2 -- -- 82
2020-09-25 02:00:00 11.1 11 Sudoeste 32 Sudoeste 0 -- -- 77
2020-09-25 01:00:00 11.2 10 Sudoeste 30 Oeste 0 -- -- 81
2020-09-25 00:00:00 11.3 10 Sudoeste 39 Oeste 0.4 -- -- 84
2020-09-24 23:00:00 11.9 12 Sudoeste 37 Oeste 0.4 -- -- 89
2020-09-24 22:00:00 12.1 18 Oeste 40 Oeste 3.4 -- -- 89
2020-09-24 21:00:00 13.1 13 Sudoeste 26 Sudoeste 3.2 -- -- 90
2020-09-24 20:00:00 15.4 10 Sudoeste 35 Sudoeste 0 -- -- 69
2020-09-24 19:00:00 16.9 17 Oeste 36 Oeste 0 -- -- 67
2020-09-24 18:00:00 17.8 14 Oeste 35 Oeste 0 -- -- 58
2020-09-24 17:00:00 17.7 21 Oeste 50 Oeste 0 -- -- 65
2020-09-24 16:00:00 18.7 20 Sudoeste 48 Sudoeste 0 -- -- 59
2020-09-24 15:00:00 16.9 14 Oeste 41 Oeste 0 -- -- 73
2020-09-24 14:00:00 20.1 19 Sudoeste 53 Sur 0 -- -- 53
2020-09-24 13:00:00 18.9 29 Sudoeste 55 Sudoeste 0 -- -- 52
2020-09-24 12:00:00 18.2 28 Sudoeste 53 Sur 0 -- -- 53
2020-09-24 11:00:00 17.3 19 Sudoeste 40 Sudoeste 0 -- -- 59
2020-09-24 10:00:00 15.8 13 Sudoeste 39 Oeste 0 -- -- 65
2020-09-24 09:00:00 14.4 12 Oeste 39 Oeste 0 -- -- 69
2020-09-24 08:00:00 14.1 15 Oeste 28 Oeste 0 -- -- 78
2020-09-24 07:00:00 13.3 8 Oeste 19 Oeste 0 -- -- 90
2020-09-24 06:00:00 12.3 3 Oeste 7 Oeste 0 -- -- 96
2020-09-24 05:00:00 13.2 2 Sudoeste 10 Nordeste 0 -- -- 94
2020-09-24 04:00:00 14.3 5 Sudoeste 15 Oeste 0 -- -- 88
2020-09-24 03:00:00 14.4 6 Noroeste 21 Oeste 0 -- -- 85
2020-09-24 02:00:00 14.9 5 Oeste 17 Noroeste 0 -- -- 86
2020-09-24 01:00:00 15.5 5 Noroeste 12 Oeste 0 -- -- 90
2020-09-24 00:00:00 15.3 3 Nordeste 8 Este 0 -- -- 91
2020-09-23 23:00:00 15.3 2 Este 10 Sudoeste 0 -- -- 89
2020-09-23 22:00:00 16 5 Oeste 10 Sur 0 -- -- 87
2020-09-23 21:00:00 17 4 Oeste 13 Oeste 0 -- -- 82
2020-09-23 20:00:00 18.5 2 Noroeste 19 Oeste 0 -- -- 77
2020-09-23 19:00:00 20 8 Oeste 22 Oeste 0 -- -- 75
2020-09-23 18:00:00 21.7 12 Oeste 23 Oeste 0 -- -- 68
2020-09-23 17:00:00 23.4 12 Oeste 30 Noroeste 0 -- -- 61
2020-09-23 16:00:00 23.1 15 Oeste 31 Noroeste 0 -- -- 59
2020-09-23 15:00:00 23.3 14 Oeste 29 Sur 0 -- -- 60
2020-09-23 14:00:00 23.4 13 Sudoeste 22 Sudoeste 0 -- -- 59
2020-09-23 13:00:00 21.1 12 Oeste 25 Oeste 0.2 -- -- 67
2020-09-23 12:00:00 21 13 Oeste 32 Oeste 0 -- -- 69
2020-09-23 11:00:00 19.8 3 Sudeste 13 Oeste 0 -- -- 76
2020-09-23 10:00:00 17.7 7 Oeste 19 Oeste 0 -- -- 88
2020-09-23 09:00:00 16.2 4 Norte 13 Sur 0 -- -- 90
2020-09-23 08:00:00 15.5 9 Sudoeste 34 Sudoeste 0 -- -- 94
2020-09-23 07:00:00 13.7 0 Calma 5 Nordeste 0 -- -- 100
2020-09-23 06:00:00 13.5 0 Calma 4 Noroeste 0 -- -- 100
2020-09-23 05:00:00 14.5 0 Calma 10 Sudoeste 0.2 -- -- 100
2020-09-23 04:00:00 14.9 0 Calma 0 Calma 0 -- -- 100
2020-09-23 03:00:00 14.7 0 Calma 0 Calma 0.6 -- -- 100
2020-09-23 02:00:00 14.7 0 Calma 0 Calma 0.4 -- -- 99
2020-09-23 01:00:00 14.8 0 Calma 0 Calma 0 -- -- 99
2020-09-23 00:00:00 14.7 0 Calma 0 Calma 0 -- -- 99
2020-09-22 23:00:00 13.9 0 Calma 0 Calma 0 -- -- 98
2020-09-22 22:00:00 14.4 0 Calma 3 Norte 0 -- -- 95
2020-09-22 21:00:00 15.4 0 Calma 8 Norte 0 -- -- 91
2020-09-22 20:00:00 16.8 0 Calma 10 Norte 0 -- -- 85
2020-09-22 19:00:00 19.1 7 Norte 12 Nordeste 0 -- -- 79
2020-09-22 18:00:00 20.3 6 Norte 9 Nordeste 0 -- -- 78
2020-09-22 17:00:00 20.6 5 Nordeste 14 Nordeste 0 -- -- 77
2020-09-22 16:00:00 19.9 10 Norte 15 Norte 0 -- -- 79
2020-09-22 15:00:00 20.2 10 Nordeste 21 Norte 0 -- -- 79
2020-09-22 14:00:00 21.7 7 Este 23 Norte 0 -- -- 75
2020-09-22 13:00:00 20.3 4 Sudeste 8 Este 0 -- -- 78
2020-09-22 12:00:00 18.4 0 Calma 0 Calma 0 -- -- 90
2020-09-22 11:00:00 15.4 0 Calma 0 Calma 0 -- -- 100
2020-09-22 10:00:00 14.2 0 Calma 0 Calma 0 -- -- 100
2020-09-22 09:00:00 13 0 Calma 0 Calma 0 -- -- 100
2020-09-22 08:00:00 12.7 0 Calma 0 Calma 0 -- -- 100
2020-09-22 07:00:00 13.2 0 Calma 0 Calma 0 -- -- 100
2020-09-22 06:00:00 13.8 0 Calma 0 Calma 0 -- -- 100
2020-09-22 05:00:00 14.1 0 Calma 0 Calma 0 -- -- 100
2020-09-22 04:00:00 14.5 0 Calma 0 Calma 0 -- -- 100
2020-09-22 03:00:00 14.8 0 Calma 0 Calma 0 -- -- 100
2020-09-22 02:00:00 14.9 0 Calma 0 Calma 0 -- -- 100
2020-09-22 01:00:00 15.7 0 Calma 0 Calma 0 -- -- 100
2020-09-22 00:00:00 15.7 0 Calma 0 Calma 0 -- -- 100
2020-09-21 23:00:00 15.7 0 Calma 4 Nordeste 0 -- -- 100
2020-09-21 22:00:00 15.8 0 Calma 4 Norte 0 -- -- 99
2020-09-21 21:00:00 16.8 0 Calma 4 Sur 0 -- -- 97
2020-09-21 20:00:00 17.6 3 Sudeste 6 Sudeste 0.4 -- -- 97
2020-09-21 19:00:00 18.2 3 Nordeste 6 Nordeste 0.2 -- -- 95
2020-09-21 18:00:00 18.4 0 Calma 8 Sudeste 0 -- -- 92
2020-09-21 17:00:00 18.2 4 Sur 12 Sudeste 0.4 -- -- 93
2020-09-21 16:00:00 18.7 6 Sudeste 15 Sudeste 0 -- -- 90
2020-09-21 15:00:00 20.9 5 Este 13 Nordeste 0 -- -- 78
2020-09-21 14:00:00 19.6 5 Norte 17 Sudoeste 0 -- -- 86
2020-09-21 13:00:00 18.6 4 Sudoeste 12 Sur 0 -- -- 88
2020-09-21 12:00:00 18.1 0 Calma 0 Calma 0 -- -- 90
2020-09-21 11:00:00 17.2 0 Calma 0 Calma 0.2 -- -- 94
2020-09-21 10:00:00 16.8 0 Calma 0 Calma 0 -- -- 98
2020-09-21 09:00:00 15.9 0 Calma 0 Calma 0 -- -- 100
2020-09-21 08:00:00 15.8 0 Calma 0 Calma 0 -- -- 100
2020-09-21 07:00:00 15.8 0 Calma 0 Calma 0 -- -- 99
2020-09-21 06:00:00 15.8 0 Calma 0 Calma 0 -- -- 100
2020-09-21 05:00:00 15.8 0 Calma 0 Calma 0 -- -- 99
2020-09-21 04:00:00 16.1 0 Calma 0 Calma 0 -- -- 100
2020-09-21 03:00:00 16 0 Calma 0 Calma 0 -- -- 99
2020-09-21 02:00:00 16 0 Calma 0 Calma 0 -- -- 99
2020-09-21 01:00:00 16.5 0 Calma 0 Calma 0 -- -- 97
2020-09-21 00:00:00 17 0 Calma 0 Calma 0.2 -- -- 97
2020-09-20 23:00:00 16.9 0 Calma 3 Noroeste 0 -- -- 96
2020-09-20 22:00:00 16.7 0 Calma 5 Nordeste 0 -- -- 96
2020-09-20 21:00:00 17.4 0 Calma 11 Norte 0 -- -- 93
2020-09-20 20:00:00 18.4 6 Nordeste 13 Nordeste 0 -- -- 90
2020-09-20 19:00:00 19.3 6 Nordeste 16 Norte 0 -- -- 87
2020-09-20 18:00:00 19.3 10 Nordeste 22 Nordeste 0 -- -- 89
2020-09-20 17:00:00 21.1 9 Nordeste 16 Nordeste 0 -- -- 81
2020-09-20 16:00:00 21 6 Nordeste 14 Nordeste 0 -- -- 81
2020-09-20 15:00:00 21.1 9 Nordeste 19 Este 0 -- -- 80
2020-09-20 14:00:00 21.6 8 Nordeste 13 Nordeste 0 -- -- 76
2020-09-20 13:00:00 21 7 Nordeste 12 Este 0 -- -- 79
2020-09-20 12:00:00 20.3 3 Este 8 Este 0 -- -- 80
2020-09-20 11:00:00 18.9 4 Sudeste 8 Sudeste 0 -- -- 86
2020-09-20 10:00:00 16.1 4 Sudoeste 8 Sudoeste 0 -- -- 98
2020-09-20 09:00:00 14.3 0 Calma 3 Este 0 -- -- 100
2020-09-20 08:00:00 14.1 0 Calma 6 Nordeste 0 -- -- 100
2020-09-20 07:00:00 13.8 3 Nordeste 5 Nordeste 0 -- -- 100
2020-09-20 06:00:00 13.6 0 Calma 3 Sur 0 -- -- 100
2020-09-20 05:00:00 13.4 0 Calma 4 Nordeste 0 -- -- 100
2020-09-20 04:00:00 13.5 0 Calma 4 Oeste 0 -- -- 100
2020-09-20 03:00:00 13.7 0 Calma 4 Sudoeste 0 -- -- 100
2020-09-20 02:00:00 14 2 Oeste 4 Oeste 0 -- -- 100
2020-09-20 01:00:00 14.5 2 Norte 4 Nordeste 0 -- -- 99
2020-09-20 00:00:00 15.3 0 Calma 4 Nordeste 0 -- -- 97
2020-09-19 23:00:00 16.3 0 Calma 5 Oeste 0 -- -- 96
2020-09-19 22:00:00 16.9 3 Norte 14 Oeste 0 -- -- 93
2020-09-19 21:00:00 17.4 5 Norte 8 Oeste 0 -- -- 91
2020-09-19 20:00:00 18.7 5 Sudeste 11 Sudeste 0 -- -- 87
2020-09-19 19:00:00 21 4 Oeste 18 Oeste 0 -- -- 78
2020-09-19 18:00:00 20.4 2 Este 8 Nordeste 0 -- -- 85
2020-09-19 17:00:00 19.2 3 Oeste 8 Oeste 0 -- -- 87
2020-09-19 16:00:00 18.2 3 Sur 6 Sudeste 0 -- -- 93
2020-09-19 15:00:00 17.2 0 Calma 11 Noroeste 0.4 -- -- 95
2020-09-19 14:00:00 16.9 5 Oeste 21 Oeste 1.6 -- -- 93
2020-09-19 13:00:00 16.9 4 Norte 19 Oeste 2.2 -- -- 92
2020-09-19 12:00:00 17.3 3 Nordeste 6 Nordeste 0 -- -- 92
2020-09-19 11:00:00 16.3 2 Sudeste 8 Oeste 0 -- -- 93
2020-09-19 10:00:00 15.5 2 Sudoeste 11 Sur 0 -- -- 96
2020-09-19 09:00:00 15.1 0 Calma 9 Sudoeste 0 -- -- 100
2020-09-19 08:00:00 14.8 3 Norte 6 Nordeste 0 -- -- 99
2020-09-19 07:00:00 15.5 2 Sudoeste 6 Nordeste 0 -- -- 98
2020-09-19 06:00:00 15.8 2 Sur 11 Noroeste 0 -- -- 97
2020-09-19 05:00:00 15.5 2 Nordeste 6 Norte 0 -- -- 100
2020-09-19 04:00:00 15.6 0 Calma 8 Oeste 0 -- -- 100
2020-09-19 03:00:00 15.5 4 Sudoeste 8 Oeste 0 -- -- 100
2020-09-19 02:00:00 15.5 2 Nordeste 6 Nordeste 0 -- -- 100
2020-09-19 01:00:00 15.5 4 Nordeste 8 Sudoeste 0 -- -- 99
2020-09-19 00:00:00 15.7 5 Oeste 9 Sudoeste 0 -- -- 99
2020-09-18 23:00:00 15.9 0 Calma 3 Nordeste 0 -- -- 98
2020-09-18 22:00:00 16 0 Calma 3 Norte 0 -- -- 98
2020-09-18 21:00:00 15.9 2 Oeste 6 Oeste 0 -- -- 95
2020-09-18 20:00:00 18.3 2 Oeste 12 Sur 0.6 -- -- 90
2020-09-18 19:00:00 21 6 Sudeste 15 Nordeste 0 -- -- 77
2020-09-18 18:00:00 21.2 10 Nordeste 17 Nordeste 0 -- -- 81
2020-09-18 17:00:00 21.7 5 Norte 11 Nordeste 0.2 -- -- 81
2020-09-18 16:00:00 19.8 7 Sudoeste 13 Este 0.2 -- -- 89
2020-09-18 15:00:00 19.2 5 Oeste 17 Noroeste 6 -- -- 95
2020-09-18 14:00:00 19.3 5 Norte 14 Nordeste 8 -- -- 89
2020-09-18 13:00:00 21.5 10 Este 17 Este 0 -- -- 82
2020-09-18 12:00:00 20.5 5 Sudoeste 10 Sur 0 -- -- 86
2020-09-18 11:00:00 17.6 3 Noroeste 5 Noroeste 0.2 -- -- 100
2020-09-18 10:00:00 17.2 2 Oeste 12 Norte 0.6 -- -- 100
2020-09-18 09:00:00 16.8 4 Nordeste 8 Nordeste 0 -- -- 100
2020-09-18 08:00:00 16.9 4 Oeste 14 Oeste 0 -- -- 99
2020-09-18 07:00:00 17.2 3 Norte 7 Noroeste 0 -- -- 100
2020-09-18 06:00:00 17.4 4 Norte 5 Norte 0 -- -- 99
2020-09-18 05:00:00 17.5 0 Calma 8 Nordeste 0 -- -- 99
2020-09-18 04:00:00 17.7 4 Oeste 13 Sur 0.4 -- -- 99
2020-09-18 03:00:00 17.8 4 Norte 11 Sur 0.4 -- -- 98
2020-09-18 02:00:00 18.1 5 Noroeste 17 Nordeste 0 -- -- 97
2020-09-18 01:00:00 18.5 3 Noroeste 12 Noroeste 0 -- -- 96
2020-09-18 00:00:00 19.6 11 Norte 20 Norte 1.6 -- -- 94
2020-09-17 23:00:00 20.2 8 Norte 12 Norte 0.6 -- -- 93
2020-09-17 22:00:00 20.5 2 Sudoeste 10 Sudoeste 0 -- -- 88
2020-09-17 21:00:00 21.1 3 Nordeste 5 Norte 0 -- -- 86
2020-09-17 20:00:00 22.2 2 Nordeste 8 Este 0 -- -- 81
2020-09-17 19:00:00 26.3 3 Oeste 7 Norte 0 -- -- 70
2020-09-17 18:00:00 26 3 Sur 12 Oeste 0 -- -- 69
2020-09-17 17:00:00 26.3 5 Sudoeste 9 Sudoeste 0 -- -- 63
2020-09-17 16:00:00 24.9 2 Sur 8 Sur 0 -- -- 69
2020-09-17 15:00:00 24.8 4 Sur 6 Sur 0 -- -- 71
2020-09-17 14:00:00 23.4 3 Sudeste 8 Sur 0 -- -- 81
2020-09-17 13:00:00 21.5 4 Sur 8 Sudoeste 0 -- -- 88
2020-09-17 12:00:00 20.4 2 Sur 6 Sur 0 -- -- 91
2020-09-17 11:00:00 18.5 3 Sudoeste 8 Sudoeste 0.2 -- -- 99
2020-09-17 10:00:00 18.2 0 Calma 4 Sudoeste 0 -- -- 100
2020-09-17 09:00:00 18 2 Oeste 8 Nordeste 0 -- -- 99
2020-09-17 08:00:00 18.5 0 Calma 6 Norte 0.2 -- -- 99
2020-09-17 07:00:00 18.5 2 Oeste 6 Sur 0.2 -- -- 99
2020-09-17 06:00:00 18.4 3 Este 7 Nordeste 0 -- -- 99
2020-09-17 05:00:00 18.7 4 Nordeste 12 Nordeste 0 -- -- 98
2020-09-17 04:00:00 18.8 3 Oeste -- -- 0.6 -- -- 97
2020-09-17 03:00:00 19.1 3 Norte 9 Sudeste 0 -- -- 97
2020-09-17 02:00:00 19.5 0 Calma 5 Este 0 -- -- 94
2020-09-17 01:00:00 19.5 3 Sudeste 9 Nordeste 0 -- -- 94
2020-09-17 00:00:00 19.6 3 Este 6 Este 0 -- -- 93
2020-09-16 23:00:00 19.4 2 Nordeste 7 Norte 0 -- -- 95
2020-09-16 22:00:00 19.1 2 Noroeste 8 Norte 0 -- -- 95
2020-09-16 21:00:00 19.5 6 Norte 14 Norte 0 -- -- 93
2020-09-16 20:00:00 20.4 9 Norte 18 Norte 0 -- -- 89
2020-09-16 19:00:00 22.3 9 Nordeste 16 Norte 0 -- -- 84
2020-09-16 18:00:00 24.3 10 Nordeste 18 Nordeste 0 -- -- 76
2020-09-16 17:00:00 25.8 9 Nordeste 18 Nordeste 0 -- -- 71
2020-09-16 16:00:00 26.5 9 Nordeste 15 Nordeste 0 -- -- 62
2020-09-16 15:00:00 27.5 7 Nordeste 14 Sudeste 0 -- -- 63
2020-09-16 14:00:00 26.3 5 Este 13 Sudeste 0 -- -- 58
2020-09-16 13:00:00 24 4 Sudeste 7 Sudeste 0 -- -- 67
2020-09-16 12:00:00 21.1 3 Sudoeste 8 Sur 0 -- -- 78
2020-09-16 11:00:00 18.5 3 Sur 7 Sudoeste 0 -- -- 86
2020-09-16 10:00:00 16 0 Calma 10 Sur 0 -- -- 95
2020-09-16 09:00:00 15.3 3 Oeste 9 Oeste 0 -- -- 99
2020-09-16 08:00:00 15.4 3 Oeste 8 Oeste 0 -- -- 99
2020-09-16 07:00:00 15.6 2 Oeste 5 Oeste 0 -- -- 99
2020-09-16 06:00:00 15.9 0 Calma 6 Oeste 0 -- -- 99
2020-09-16 05:00:00 16 2 Norte 6 Noroeste 0 -- -- 99
2020-09-16 04:00:00 16.4 0 Calma 5 Noroeste 0 -- -- 99
2020-09-16 03:00:00 16.6 3 Oeste 5 Oeste 0 -- -- 100
2020-09-16 02:00:00 16.4 0 Calma 4 Nordeste 0 -- -- 98
2020-09-16 01:00:00 16.6 0 Calma 2 Oeste 0 -- -- 99
2020-09-16 00:00:00 16.4 2 Norte 4 Nordeste 0 -- -- 98
2020-09-15 23:00:00 17.1 0 Calma 3 Oeste 0 -- -- 97
2020-09-15 22:00:00 18 0 Calma 4 Este 0 -- -- 94
2020-09-15 21:00:00 19.1 2 Noroeste 9 Norte 0 -- -- 91
2020-09-15 20:00:00 20.3 6 Norte 13 Norte 0 -- -- 86
2020-09-15 19:00:00 21.4 5 Norte 15 Norte 0 -- -- 79
2020-09-15 18:00:00 23 8 Norte 18 Nordeste 0 -- -- 74
2020-09-15 17:00:00 24.4 11 Nordeste 20 Este 0 -- -- 68
2020-09-15 16:00:00 25.8 12 Nordeste 21 Este 0 -- -- 65
2020-09-15 15:00:00 26.3 11 Este 22 Este 0 -- -- 67
2020-09-15 14:00:00 25.6 6 Norte 16 Nordeste 0 -- -- 67
2020-09-15 13:00:00 25.1 7 Nordeste 12 Sudeste 0 -- -- 68
2020-09-15 12:00:00 22.8 3 Sudeste 6 Sur 0 -- -- 79
2020-09-15 11:00:00 19.9 3 Sudeste 6 Sudoeste 0 -- -- 87
2020-09-15 10:00:00 17.1 0 Calma 4 Nordeste 0 -- -- 100
2020-09-15 09:00:00 15.3 2 Sudoeste 4 Nordeste 0 -- -- 100
2020-09-15 08:00:00 14.9 2 Norte 6 Oeste 0 -- -- 100
2020-09-15 07:00:00 15.3 0 Calma 5 Este 0 -- -- 100
2020-09-15 06:00:00 15.9 2 Oeste 5 Nordeste 0 -- -- 100
2020-09-15 05:00:00 16.5 2 Nordeste 9 Oeste 0 -- -- 100
2020-09-15 04:00:00 16.8 4 Noroeste 7 Sudoeste 0 -- -- 100
2020-09-15 03:00:00 16.8 2 Nordeste 6 Oeste 0 -- -- 99
2020-09-15 02:00:00 17.6 0 Calma 7 Sur 0 -- -- 98
2020-09-15 01:00:00 18 0 Calma 4 Oeste 0 -- -- 98
2020-09-15 00:00:00 17.9 0 Calma 12 Noroeste 0 -- -- 98
2020-09-14 23:00:00 18.2 3 Noroeste 9 Noroeste 0 -- -- 97
2020-09-14 22:00:00 18.5 5 Noroeste 16 Sudoeste 0.8 -- -- 96
2020-09-14 21:00:00 18.7 3 Oeste 7 Sudeste 0 -- -- 94
2020-09-14 20:00:00 20 4 Norte 10 Este 0 -- -- 88
2020-09-14 19:00:00 20.5 4 Nordeste 19 Nordeste 0 -- -- 87
2020-09-14 18:00:00 21.8 9 Nordeste 20 Norte 0 -- -- 80
2020-09-14 17:00:00 24.1 9 Nordeste 20 Este 0 -- -- 72
2020-09-14 16:00:00 24.2 8 Nordeste 14 Nordeste 0 -- -- 75
2020-09-14 15:00:00 21 2 Sur 6 Sudoeste 0 -- -- 89
2020-09-14 14:00:00 19.2 3 Oeste 9 Norte 0 -- -- 93
2020-09-14 13:00:00 19 2 Oeste 9 Sudoeste 0.4 -- -- 93
2020-09-14 12:00:00 20.1 3 Oeste 7 Noroeste 0 -- -- 79
2020-09-14 11:00:00 20.2 0 Calma 5 Oeste 0 -- -- 84
2020-09-14 10:00:00 19.5 2 Sudoeste 4 Noroeste 0 -- -- 83
2020-09-14 09:00:00 17.9 0 Calma 7 Oeste 0 -- -- 88
2020-09-14 08:00:00 17.4 3 Noroeste 6 Oeste 0 -- -- 86
2020-09-14 07:00:00 18.2 2 Oeste 6 Sudoeste 0 -- -- 83
2020-09-14 06:00:00 17.8 0 Calma 3 Sudeste 0 -- -- 85
2020-09-14 05:00:00 19 2 Noroeste 8 Oeste 0 -- -- 81
2020-09-14 04:00:00 19.2 0 Calma 7 Sudoeste 0 -- -- 81
2020-09-14 03:00:00 19.4 2 Oeste 4 Sudoeste 0 -- -- 81
2020-09-14 02:00:00 19.9 0 Calma 6 Noroeste 0 -- -- 80
2020-09-14 01:00:00 20 0 Calma 4 Oeste 0 -- -- 81
2020-09-14 00:00:00 20.8 0 Calma 5 Oeste 0 -- -- 78
2020-09-13 23:00:00 21.6 3 Oeste 6 Oeste 0 -- -- 74
2020-09-13 22:00:00 22.1 5 Oeste 9 Sudoeste 0 -- -- 71
2020-09-13 21:00:00 23.4 0 Calma 4 Norte 0 -- -- 71
2020-09-13 20:00:00 26.1 0 Calma 4 Norte 0 -- -- 67
2020-09-13 19:00:00 28.4 0 Calma 8 Noroeste 0 -- -- 59
2020-09-13 18:00:00 29.7 3 Norte 13 Norte 0 -- -- 55
2020-09-13 17:00:00 32.7 8 Norte 14 Norte 0 -- -- 42
2020-09-13 16:00:00 33.4 3 Nordeste 10 Nordeste 0 -- -- 45
2020-09-13 15:00:00 32.5 6 Sudeste 10 Sur 0 -- -- 43
2020-09-13 14:00:00 30.5 3 Sudeste 8 Sur 0 -- -- 50
2020-09-13 13:00:00 28.1 2 Sudeste 8 Sur 0 -- -- 51
2020-09-13 12:00:00 25 2 Sur 8 Sur 0 -- -- 57
2020-09-13 11:00:00 21.7 2 Sudeste 5 Sur 0 -- -- 74
2020-09-13 10:00:00 18.5 2 Sudeste 4 Sur 0 -- -- 89
2020-09-13 09:00:00 15.8 0 Calma 4 Noroeste 0 -- -- 99
2020-09-13 08:00:00 16 2 Sudoeste 6 Sudoeste 0 -- -- 97
2020-09-13 07:00:00 17.5 5 Sur 8 Sudoeste 0 -- -- 96
2020-09-13 06:00:00 18 4 Sur 9 Sur 0 -- -- 97
2020-09-13 05:00:00 18.3 0 Calma 0 Calma 0 -- -- 97
2020-09-13 04:00:00 18.3 0 Calma 0 Calma -- -- -- 98
2020-09-13 03:00:00 18.5 0 Calma 0 Calma 0 -- -- 98
2020-09-13 02:00:00 18.4 0 Calma 0 Calma 0 -- -- 98
2020-09-13 01:00:00 18.2 0 Calma 4 Nordeste 0 -- -- 99
2020-09-13 00:00:00 17.7 0 Calma 3 Sudeste 0 -- -- 99
2020-09-12 23:00:00 17.6 0 Calma 2 Sudeste 0 -- -- 98
2020-09-12 22:00:00 17.9 0 Calma 4 Este 0 -- -- 96
2020-09-12 21:00:00 18.9 0 Calma 13 Norte 0 -- -- 93
2020-09-12 20:00:00 20.5 9 Norte 16 Nordeste 0 -- -- 88
2020-09-12 19:00:00 22.5 9 Norte 16 Norte 0 -- -- 82
2020-09-12 18:00:00 24.2 8 Norte 21 Este 0 -- -- 76
2020-09-12 17:00:00 25.3 10 Nordeste 17 Este 0 -- -- 73
2020-09-12 16:00:00 24.3 5 Nordeste 13 Nordeste 0 -- -- 73
2020-09-12 15:00:00 23 4 Este 13 Sudeste 0 -- -- 75
2020-09-12 14:00:00 21.4 4 Este 10 Este 0 -- -- 82
2020-09-12 13:00:00 20.7 4 Este 10 Este 0 -- -- 87
2020-09-12 12:00:00 19.7 3 Sur 5 Sur 0 -- -- 93
2020-09-12 11:00:00 19 2 Sur 6 Sur 0 -- -- 96
2020-09-12 10:00:00 18.9 2 Norte 5 Nordeste 0 -- -- 97
2020-09-12 09:00:00 18.6 0 Calma 2 Sudoeste 0 -- -- 99
2020-09-12 08:00:00 18.5 0 Calma 4 Este 0 -- -- 99
2020-09-12 07:00:00 18.4 2 Nordeste 7 Nordeste 0 -- -- 99
2020-09-12 06:00:00 18.5 2 Sudeste 5 Sudeste 0 -- -- 98
2020-09-12 05:00:00 18.6 0 Calma 6 Nordeste 0.2 -- -- 98
2020-09-12 04:00:00 18.5 3 Norte 12 Norte 0 -- -- 98
2020-09-12 03:00:00 18.7 7 Norte 15 Norte 0 -- -- 96
2020-09-12 02:00:00 19.2 3 Nordeste 13 Noroeste 0 -- -- 95
2020-09-12 01:00:00 19.4 2 Norte 9 Nordeste 0 -- -- 94
2020-09-12 00:00:00 19.7 2 Sur 4 Norte 0 -- -- 93
2020-09-11 23:00:00 19.8 3 Sur 12 Norte 0 -- -- 92
2020-09-11 22:00:00 19.8 7 Norte 12 Nordeste 0 -- -- 92
2020-09-11 21:00:00 20 8 Norte 14 Nordeste 0 -- -- 91
2020-09-11 20:00:00 20.6 9 Norte 17 Norte 0 -- -- 89
2020-09-11 19:00:00 21.6 11 Norte 21 Norte 0 -- -- 85
2020-09-11 18:00:00 24.1 9 Norte 17 Nordeste 0 -- -- 78
2020-09-11 17:00:00 25.6 12 Nordeste 23 Nordeste 0 -- -- 74
2020-09-11 16:00:00 26.1 10 Este 18 Nordeste 0 -- -- 69
2020-09-11 15:00:00 25.6 5 Nordeste 13 Sudeste 0 -- -- 68
2020-09-11 14:00:00 23.6 5 Sudeste 12 Sur 0 -- -- 70
2020-09-11 13:00:00 20.6 4 Sur 8 Sur 0 -- -- 80
2020-09-11 12:00:00 18.2 3 Sudeste 5 Sudeste 0 -- -- 89
2020-09-11 11:00:00 17.2 3 Sur 6 Este 0 -- -- 94
2020-09-11 10:00:00 16.9 2 Sur 5 Este 0 -- -- 95
2020-09-11 09:00:00 16.7 0 Calma 2 Este 0 -- -- 95
2020-09-11 08:00:00 16.8 0 Calma 6 Sur 0 -- -- 94
2020-09-11 07:00:00 17 3 Sudeste 5 Sudeste 0 -- -- 96
2020-09-11 06:00:00 17.2 3 Sudeste 6 Sudeste 0 -- -- 96
2020-09-11 05:00:00 17.4 0 Calma 4 Oeste 0 -- -- 96
2020-09-11 04:00:00 17.4 0 Calma 4 Este 0 -- -- 96
2020-09-11 03:00:00 17.4 2 Oeste 5 Este 0 -- -- 96
2020-09-11 02:00:00 17.5 4 Este 8 Este 0 -- -- 96
2020-09-11 01:00:00 17.5 2 Sur 4 Sudeste 0 -- -- 96
2020-09-11 00:00:00 17.2 0 Calma 2 Oeste 0 -- -- 97
2020-09-10 23:00:00 16.7 0 Calma 4 Norte 0 -- -- 97
2020-09-10 22:00:00 17.1 0 Calma 6 Norte 0 -- -- 95
2020-09-10 21:00:00 18.3 5 Norte 14 Norte 0 -- -- 92
2020-09-10 20:00:00 19.7 10 Norte 17 Norte 0 -- -- 87
2020-09-10 19:00:00 22.1 9 Norte 18 Norte 0 -- -- 76
2020-09-10 18:00:00 23.8 12 Nordeste 21 Nordeste 0 -- -- 69
2020-09-10 17:00:00 24.8 13 Nordeste 23 Este 0 -- -- 63
2020-09-10 16:00:00 25.5 14 Este 21 Nordeste 0 -- -- 59
2020-09-10 15:00:00 25.3 10 Este 21 Este 0 -- -- 60
2020-09-10 14:00:00 24.6 11 Nordeste 19 Nordeste 0 -- -- 66
2020-09-10 13:00:00 23.7 8 Norte 15 Norte 0 -- -- 65
2020-09-10 12:00:00 22.7 5 Sudeste 10 Este 0 -- -- 72
2020-09-10 11:00:00 19.8 3 Sudeste 8 Sudeste 0 -- -- 82
2020-09-10 10:00:00 17.1 3 Sudeste 5 Este 0 -- -- 94
2020-09-10 09:00:00 14 0 Calma 4 Sudoeste 0 -- -- 100
2020-09-10 08:00:00 13.8 3 Nordeste 5 Noroeste 0 -- -- 98
2020-09-10 07:00:00 14.7 0 Calma 5 Nordeste 0 -- -- 100
2020-09-10 06:00:00 14.6 2 Sudoeste 3 Oeste 0 -- -- 100
2020-09-10 05:00:00 14.9 0 Calma 3 Sur 0 -- -- 99
2020-09-10 04:00:00 15.1 3 Este 5 Nordeste 0 -- -- 98
2020-09-10 03:00:00 15.7 2 Oeste 5 Norte 0 -- -- 98
2020-09-10 02:00:00 15.4 0 Calma 3 Este 0 -- -- 99
2020-09-10 01:00:00 14.9 0 Calma 3 Nordeste 0 -- -- 99
2020-09-10 00:00:00 15.4 2 Sudoeste 4 Este 0 -- -- 97
2020-09-09 23:00:00 16.7 2 Oeste 9 Norte 0 -- -- 93
2020-09-09 22:00:00 17.1 3 Noroeste 8 Nordeste 0 -- -- 90
2020-09-09 21:00:00 18.4 5 Norte 15 Norte 0 -- -- 83
2020-09-09 20:00:00 19.9 10 Norte 20 Norte 0 -- -- 78
2020-09-09 19:00:00 22.2 12 Norte 19 Norte 0 -- -- 73
2020-09-09 18:00:00 24 11 Nordeste 22 Este 0 -- -- 69
2020-09-09 17:00:00 25 12 Nordeste 21 Nordeste 0 -- -- 68
2020-09-09 16:00:00 24.9 11 Nordeste 21 Nordeste 0 -- -- 69
2020-09-09 15:00:00 24.6 12 Nordeste 19 Nordeste 0 -- -- 69
2020-09-09 14:00:00 24.2 6 Nordeste 16 Nordeste 0 -- -- 69
2020-09-09 13:00:00 23.1 6 Nordeste 14 Nordeste 0 -- -- 68
2020-09-09 12:00:00 21.4 4 Sudeste 8 Sudeste 0 -- -- 68
2020-09-09 11:00:00 17.6 3 Sudeste 6 Sudeste 0 -- -- 84
2020-09-09 10:00:00 14.3 3 Sudoeste 7 Sudoeste 0 -- -- 96
2020-09-09 09:00:00 12.2 5 Oeste 9 Oeste 0 -- -- 100
2020-09-09 08:00:00 11.2 2 Oeste 5 Oeste 0 -- -- 100
2020-09-09 07:00:00 11.1 0 Calma 3 Oeste 0 -- -- 100
2020-09-09 06:00:00 11.5 0 Calma 4 Nordeste 0 -- -- 100
2020-09-09 05:00:00 11.9 2 Oeste 4 Este 0 -- -- 99
2020-09-09 04:00:00 12 0 Calma 2 Nordeste 0 -- -- 99
2020-09-09 03:00:00 12.3 3 Nordeste 5 Oeste 0 -- -- 98
2020-09-09 02:00:00 12.7 3 Nordeste 4 Este 0 -- -- 98
2020-09-09 01:00:00 13 0 Calma 3 Nordeste 0 -- -- 96
2020-09-09 00:00:00 13.8 2 Sur 3 Oeste 0 -- -- 94
2020-09-08 23:00:00 14.5 2 Oeste 4 Nordeste 0 -- -- 91
2020-09-08 22:00:00 16.1 0 Calma 9 Oeste 0 -- -- 84
2020-09-08 21:00:00 17.6 4 Oeste 19 Norte 0 -- -- 79
2020-09-08 20:00:00 19 10 Norte 19 Norte 0 -- -- 75
2020-09-08 19:00:00 21.2 10 Nordeste 23 Norte 0 -- -- 70
2020-09-08 18:00:00 22.2 12 Nordeste 26 Nordeste 0 -- -- 66
2020-09-08 17:00:00 23.5 12 Nordeste 23 Nordeste 0 -- -- 62
2020-09-08 16:00:00 23.7 12 Nordeste 24 Nordeste 0 -- -- 57
2020-09-08 15:00:00 23.6 11 Este 27 Este 0 -- -- 61
2020-09-08 14:00:00 22.6 11 Este 21 Nordeste 0 -- -- 65
2020-09-08 13:00:00 21.1 7 Este 18 Este 0 -- -- 68
2020-09-08 12:00:00 19.5 5 Este 12 Sur 0 -- -- 72
2020-09-08 11:00:00 17 4 Sur 8 Sudeste 0 -- -- 75
2020-09-08 10:00:00 13.5 2 Sudeste 4 Nordeste 0 -- -- 94
2020-09-08 09:00:00 10 0 Calma 4 Sudoeste 0 -- -- 100
2020-09-08 08:00:00 9.2 0 Calma 4 Sudeste 0 -- -- 99
2020-09-08 07:00:00 9.5 0 Calma 4 Este 0 -- -- 99
2020-09-08 06:00:00 10 0 Calma 4 Este 0 -- -- 99
2020-09-08 05:00:00 10.4 0 Calma 6 Nordeste 0 -- -- 99
2020-09-08 04:00:00 11.2 0 Calma 4 Norte 0 -- -- 98
2020-09-08 03:00:00 11.5 0 Calma 3 Oeste 0 -- -- 97
2020-09-08 02:00:00 11.9 0 Calma 4 Norte 0 -- -- 96
2020-09-08 01:00:00 12.5 0 Calma 5 Norte 0 -- -- 95
2020-09-08 00:00:00 13.1 0 Calma 5 Oeste 0 -- -- 93
2020-09-07 23:00:00 14.7 0 Calma 17 Nordeste 0 -- -- 89
2020-09-07 22:00:00 15.7 9 Norte 15 Norte 0 -- -- 85
2020-09-07 21:00:00 16.2 9 Norte 17 Norte 0 -- -- 84
2020-09-07 20:00:00 17.6 10 Nordeste 25 Nordeste 0 -- -- 75
2020-09-07 19:00:00 18.9 15 Nordeste 29 Nordeste 0 -- -- 73
2020-09-07 18:00:00 20.2 16 Nordeste 26 Nordeste 0 -- -- 70
2020-09-07 17:00:00 21.3 13 Nordeste 27 Nordeste 0 -- -- 67
2020-09-07 16:00:00 21.3 15 Nordeste 32 Nordeste 0 -- -- 68
2020-09-07 15:00:00 20.9 11 Nordeste 25 Nordeste 0 -- -- 67
2020-09-07 14:00:00 20 10 Nordeste 22 Nordeste 0 -- -- 68
2020-09-07 13:00:00 20.4 10 Nordeste 26 Este 0 -- -- 64
2020-09-07 12:00:00 19.2 9 Nordeste 21 Nordeste 0 -- -- 68
2020-09-07 11:00:00 17.6 6 Nordeste 13 Este 0 -- -- 78
2020-09-07 10:00:00 15.7 3 Sur 6 Sur 0 -- -- 87
2020-09-07 09:00:00 12.6 0 Calma 3 Noroeste 0 -- -- 98
2020-09-07 08:00:00 12.2 0 Calma 4 Norte 0 -- -- 96
2020-09-07 07:00:00 13.1 0 Calma 5 Nordeste 0 -- -- 93
2020-09-07 06:00:00 14.5 4 Nordeste 10 Nordeste 0 -- -- 91
2020-09-07 05:00:00 14.3 4 Nordeste 8 Nordeste 0 -- -- 93
2020-09-07 04:00:00 15.1 0 Calma 15 Nordeste 0 -- -- 90
2020-09-07 03:00:00 15.4 7 Nordeste 14 Nordeste 0 -- -- 87
2020-09-07 02:00:00 15.3 6 Nordeste 10 Nordeste 0 -- -- 87
2020-09-07 01:00:00 15.4 6 Nordeste 14 Norte 0 -- -- 87
2020-09-07 00:00:00 15.5 4 Nordeste 14 Norte 0 -- -- 88
2020-09-06 23:00:00 15.6 9 Nordeste 16 Norte 0 -- -- 86
2020-09-06 22:00:00 15.7 8 Norte 17 Norte 0 -- -- 87
2020-09-06 21:00:00 16 9 Nordeste 20 Nordeste 0 -- -- 85
2020-09-06 20:00:00 16.7 10 Nordeste 23 Nordeste 0 -- -- 83
2020-09-06 19:00:00 17.3 12 Nordeste 21 Este 0 -- -- 82
2020-09-06 18:00:00 17.8 8 Nordeste 19 Nordeste 0 -- -- 82
2020-09-06 17:00:00 17.2 11 Nordeste 22 Nordeste 0 -- -- 84
2020-09-06 16:00:00 17.6 11 Nordeste 21 Nordeste 0 -- -- 83
2020-09-06 15:00:00 17.1 8 Nordeste 20 Nordeste 0 -- -- 86
2020-09-06 14:00:00 16.5 10 Norte 18 Nordeste 0 -- -- 89
2020-09-06 13:00:00 15.6 9 Norte 17 Norte 0 -- -- 92
2020-09-06 12:00:00 15.6 10 Norte 14 Nordeste 0 -- -- 92
2020-09-06 11:00:00 14.7 8 Norte 13 Nordeste 0.2 -- -- 96
2020-09-06 10:00:00 14.3 6 Norte 13 Nordeste 0 -- -- 98
2020-09-06 09:00:00 14 7 Norte 11 Norte 0.4 -- -- 98
2020-09-06 08:00:00 14.2 4 Noroeste 13 Norte 0 -- -- 97
2020-09-06 07:00:00 14.4 6 Norte 13 Nordeste 0 -- -- 95
2020-09-06 06:00:00 14.5 6 Norte 15 Nordeste 0 -- -- 97
2020-09-06 05:00:00 14.5 6 Nordeste 28 Norte 0.2 -- -- 98
2020-09-06 04:00:00 14.7 16 Nordeste 28 Norte 0.8 -- -- 98
2020-09-06 03:00:00 15.3 14 Nordeste 22 Nordeste 0.8 -- -- 99
2020-09-06 02:00:00 15.4 12 Norte 23 Norte 1 -- -- 99
2020-09-06 01:00:00 15.6 12 Nordeste 17 Nordeste 0.2 -- -- 99
2020-09-06 00:00:00 15.6 11 Nordeste 23 Nordeste 0 -- -- 98
2020-09-05 23:00:00 15.7 15 Nordeste 30 Norte 0.2 -- -- 98
2020-09-05 22:00:00 15.8 19 Nordeste 30 Nordeste 0.6 -- -- 98
2020-09-05 21:00:00 16.1 14 Nordeste 27 Norte 0.4 -- -- 99
2020-09-05 20:00:00 16.4 15 Nordeste 24 Nordeste 0.6 -- -- 98
2020-09-05 19:00:00 16.8 14 Nordeste 24 Nordeste 0.6 -- -- 98
2020-09-05 18:00:00 17 13 Nordeste 21 Nordeste 0.4 -- -- 98
2020-09-05 17:00:00 17.2 11 Nordeste 19 Norte 0 -- -- 98
2020-09-05 16:00:00 17.1 13 Nordeste 24 Norte 0.2 -- -- 96
2020-09-05 15:00:00 17.1 12 Nordeste 21 Nordeste 0 -- -- 96
2020-09-05 14:00:00 17 10 Nordeste 18 Nordeste 0 -- -- 96
2020-09-05 13:00:00 17.1 8 Nordeste 21 Nordeste 0 -- -- 96
2020-09-05 12:00:00 16.9 12 Nordeste 21 Nordeste 0.6 -- -- 97
2020-09-05 11:00:00 17 5 Nordeste 12 Nordeste 0.2 -- -- 97
2020-09-05 10:00:00 16.9 2 Este 9 Norte 0.2 -- -- 98
2020-09-05 09:00:00 16.7 4 Norte 15 Norte 0.2 -- -- 97
2020-09-05 08:00:00 17 9 Nordeste 24 Nordeste 0.4 -- -- 98
2020-09-05 07:00:00 17.4 8 Norte 18 Nordeste 0 -- -- 97
2020-09-05 06:00:00 17.8 11 Nordeste 18 Nordeste 0 -- -- 96
2020-09-05 05:00:00 18.1 6 Nordeste 13 Norte 0 -- -- 96
2020-09-05 04:00:00 18.4 2 Oeste 6 Norte 0 -- -- 93
2020-09-05 03:00:00 18.5 5 Norte 8 Norte 0 -- -- 93
2020-09-05 02:00:00 18.1 2 Norte 4 Oeste 0 -- -- 96
2020-09-05 01:00:00 18 0 Calma 4 Norte 0 -- -- 95
2020-09-05 00:00:00 19.3 0 Calma 8 Norte 0 -- -- 95
2020-09-04 23:00:00 19.5 5 Nordeste 10 Norte 0 -- -- 96
2020-09-04 22:00:00 19 3 Norte 17 Norte 0 -- -- 95
2020-09-04 21:00:00 20.8 5 Norte 14 Norte 0 -- -- 89
2020-09-04 20:00:00 24.4 3 Nordeste 14 Norte 0 -- -- 76
2020-09-04 19:00:00 27.1 9 Norte 15 Nordeste 0 -- -- 58
2020-09-04 18:00:00 28.4 10 Nordeste 21 Norte 0 -- -- 55
2020-09-04 17:00:00 28.8 12 Norte 21 Norte 0 -- -- 65
2020-09-04 16:00:00 30 12 Norte 19 Nordeste 0 -- -- 60
2020-09-04 15:00:00 30.2 10 Norte 15 Nordeste 0 -- -- 59
2020-09-04 14:00:00 30.2 6 Norte 11 Nordeste 0 -- -- 58
2020-09-04 13:00:00 28.2 6 Sudeste 9 Sudeste 0 -- -- 60
2020-09-04 12:00:00 25.2 3 Sudeste 9 Sudeste 0 -- -- 68
2020-09-04 11:00:00 21.8 4 Sudoeste 7 Sur 0 -- -- 75
2020-09-04 10:00:00 18.7 2 Sudoeste 6 Sudoeste 0 -- -- 88
2020-09-04 09:00:00 16.3 0 Calma 4 Noroeste 0 -- -- 99
2020-09-04 08:00:00 15.5 0 Calma 5 Noroeste 0 -- -- 98
2020-09-04 07:00:00 15.4 0 Calma 4 Sur 0 -- -- 99
2020-09-04 06:00:00 15.5 0 Calma 4 Nordeste 0 -- -- 99
2020-09-04 05:00:00 15.7 0 Calma 3 Oeste 0 -- -- 99
2020-09-04 04:00:00 15.9 0 Calma 3 Oeste 0 -- -- 99
2020-09-04 03:00:00 16.1 0 Calma 2 Norte 0 -- -- 98
2020-09-04 02:00:00 16.5 0 Calma 2 Este 0 -- -- 97
2020-09-04 01:00:00 17.1 0 Calma 2 Noroeste 0 -- -- 96
2020-09-04 00:00:00 17.7 0 Calma 3 Oeste 0 -- -- 94
2020-09-03 23:00:00 18.6 0 Calma 2 Norte 0 -- -- 91
2020-09-03 22:00:00 20 0 Calma 2 Sur 0 -- -- 87
2020-09-03 21:00:00 21.5 0 Calma 4 Norte 0 -- -- 80
2020-09-03 20:00:00 23.6 0 Calma 14 Norte 0 -- -- 73
2020-09-03 19:00:00 25.9 10 Norte 15 Norte 0 -- -- 65
2020-09-03 18:00:00 26.5 10 Norte 16 Nordeste 0 -- -- 66
2020-09-03 17:00:00 26.9 10 Norte 18 Norte 0 -- -- 68
2020-09-03 16:00:00 27.3 10 Norte 20 Nordeste 0 -- -- 67
2020-09-03 15:00:00 27.3 12 Nordeste 20 Nordeste 0 -- -- 66
2020-09-03 14:00:00 27.4 8 Nordeste 16 Este 0 -- -- 62
2020-09-03 13:00:00 25.8 6 Sudeste 12 Sur 0 -- -- 69
2020-09-03 12:00:00 22.9 4 Sudeste 8 Sudeste 0 -- -- 76
2020-09-03 11:00:00 19.3 2 Sur 7 Sur 0 -- -- 85
2020-09-03 10:00:00 16 3 Sudoeste 6 Sur 0 -- -- 96
2020-09-03 09:00:00 14.1 0 Calma 5 Oeste 0 -- -- 100
2020-09-03 08:00:00 13.6 0 Calma 5 Norte 0 -- -- 100
2020-09-03 07:00:00 13.6 3 Noroeste 5 Oeste 0 -- -- 100
2020-09-03 06:00:00 13.5 4 Oeste 6 Oeste 0 -- -- 100
2020-09-03 05:00:00 13.3 0 Calma 2 Nordeste 0 -- -- 100
2020-09-03 04:00:00 13.6 0 Calma 2 Nordeste 0 -- -- 100
2020-09-03 03:00:00 13.8 0 Calma 3 Oeste 0 -- -- 99
2020-09-03 02:00:00 14.1 0 Calma 3 Noroeste 0 -- -- 99
2020-09-03 01:00:00 14.5 2 Oeste 4 Oeste 0 -- -- 98
2020-09-03 00:00:00 14.8 2 Oeste 4 Nordeste 0 -- -- 97
2020-09-02 23:00:00 15.5 0 Calma 3 Oeste 0 -- -- 94
2020-09-02 22:00:00 16.6 0 Calma 7 Oeste 0 -- -- 91
2020-09-02 21:00:00 18 3 Norte 11 Norte 0 -- -- 84
2020-09-02 20:00:00 19.6 6 Norte 13 Nordeste 0 -- -- 79
2020-09-02 19:00:00 21.5 7 Norte 19 Nordeste 0 -- -- 73
2020-09-02 18:00:00 22.6 10 Nordeste 20 Nordeste 0 -- -- 71
2020-09-02 17:00:00 22.6 15 Nordeste 24 Nordeste 0 -- -- 72
2020-09-02 16:00:00 24.1 11 Nordeste 19 Este 0 -- -- 66
2020-09-02 15:00:00 23.9 10 Nordeste 18 Nordeste 0 -- -- 65
2020-09-02 14:00:00 22.8 6 Este 15 Este 0 -- -- 63
2020-09-02 13:00:00 21 4 Nordeste 27 Sur 0 -- -- 69
2020-09-02 12:00:00 20.2 6 Sur 14 Sur 0 -- -- 75
2020-09-02 11:00:00 18.1 5 Nordeste 14 Nordeste 0 -- -- 79
2020-09-02 10:00:00 15.3 0 Calma 4 Nordeste 0 -- -- 94
2020-09-02 09:00:00 13.9 0 Calma 4 Oeste 0 -- -- 97
2020-09-02 08:00:00 12.8 0 Calma 4 Nordeste 0 -- -- 97
2020-09-02 07:00:00 14.3 0 Calma 3 Norte 0 -- -- 94
2020-09-02 06:00:00 14.5 3 Este 4 Nordeste 0 -- -- 95
2020-09-02 05:00:00 15 0 Calma 4 Norte 0 -- -- 95
2020-09-02 04:00:00 15 0 Calma 3 Noroeste 0 -- -- 94
2020-09-02 03:00:00 14.8 0 Calma 4 Sur 0 -- -- 94
2020-09-02 02:00:00 14.5 0 Calma 4 Noroeste 0 -- -- 93
2020-09-02 01:00:00 15.8 3 Noroeste 5 Noroeste 0 -- -- 89
2020-09-02 00:00:00 16.2 0 Calma 6 Noroeste 0 -- -- 88
2020-09-01 23:00:00 16.4 3 Noroeste 9 Noroeste 0 -- -- 86
2020-09-01 22:00:00 16.5 4 Norte 14 Nordeste 0 -- -- 86
2020-09-01 21:00:00 17 9 Nordeste 20 Nordeste 0 -- -- 84
2020-09-01 20:00:00 17.8 11 Nordeste 23 Norte 0 -- -- 82
2020-09-01 19:00:00 18.6 12 Nordeste 24 Nordeste 0 -- -- 80
2020-09-01 18:00:00 20.8 15 Nordeste 25 Nordeste 0 -- -- 72
2020-09-01 17:00:00 20.9 16 Nordeste 29 Nordeste 0 -- -- 71
2020-09-01 16:00:00 21.7 16 Nordeste 24 Nordeste 0 -- -- 69
2020-09-01 15:00:00 21.6 14 Nordeste 25 Nordeste 0 -- -- 72
2020-09-01 14:00:00 21.8 15 Nordeste 21 Nordeste 0 -- -- 67
2020-09-01 13:00:00 21.7 7 Sudeste 16 Este 0 -- -- 69
2020-09-01 12:00:00 18.9 4 Nordeste 13 Nordeste 0 -- -- 81
2020-09-01 11:00:00 17.5 2 Sudeste 5 Este 0 -- -- 76
2020-09-01 10:00:00 14.2 2 Oeste 5 Sudeste 0 -- -- 86
2020-09-01 09:00:00 11.7 0 Calma 4 Oeste 0 -- -- 94
2020-09-01 08:00:00 11.3 3 Oeste 5 Oeste 0 -- -- 94
2020-09-01 07:00:00 11.6 0 Calma 3 Nordeste 0 -- -- 92
2020-09-01 06:00:00 12.1 0 Calma 3 Este 0 -- -- 93
2020-09-01 05:00:00 12 0 Calma 4 Nordeste 0 -- -- 93
2020-09-01 04:00:00 12.3 2 Nordeste 4 Oeste 0 -- -- 90
2020-09-01 03:00:00 12.5 0 Calma 3 Nordeste 0 -- -- 90
2020-09-01 02:00:00 13.1 2 Este 3 Nordeste 0 -- -- 89
2020-09-01 01:00:00 13.4 3 Oeste 6 Oeste 0 -- -- 88
2020-09-01 00:00:00 13.7 0 Calma 8 Oeste 0 -- -- 88
2020-08-31 23:00:00 14.3 0 Calma 3 Oeste 0 -- -- 85
2020-08-31 22:00:00 15.9 2 Norte 6 Noroeste 0 -- -- 83
2020-08-31 21:00:00 16.9 2 Nordeste 6 Norte 0 -- -- 77
2020-08-31 20:00:00 19.4 3 Norte 6 Norte 0 -- -- 73
2020-08-31 19:00:00 19.9 0 Calma 14 Norte 0 -- -- 70
2020-08-31 18:00:00 20.8 9 Norte 15 Norte 0 -- -- 69
2020-08-31 17:00:00 21.5 9 Nordeste 15 Nordeste 0 -- -- 68
2020-08-31 16:00:00 22.3 9 Nordeste 15 Nordeste 0 -- -- 61
2020-08-31 15:00:00 22.6 10 Norte 16 Norte 0 -- -- 56
2020-08-31 14:00:00 22.2 5 Nordeste 12 Este 0 -- -- 61
2020-08-31 13:00:00 20.6 4 Sudeste 9 Sudeste 0 -- -- 61
2020-08-31 12:00:00 17.2 3 Sur 7 Sudoeste 0 -- -- 73
2020-08-31 11:00:00 14.4 3 Sudeste 7 Sur 0 -- -- 85
2020-08-31 10:00:00 11.3 3 Sur 6 Sur 0 -- -- 96
2020-08-31 09:00:00 9.3 2 Sudoeste 5 Sudoeste 0 -- -- 100
2020-08-31 08:00:00 8 0 Calma 3 Noroeste 0 -- -- 100
2020-08-31 07:00:00 8.5 0 Calma 4 Noroeste 0 -- -- 100
2020-08-31 06:00:00 8.2 0 Calma 3 Oeste 0 -- -- 100
2020-08-31 05:00:00 8.8 0 Calma 3 Oeste 0 -- -- 100
2020-08-31 04:00:00 9.3 0 Calma 4 Oeste 0 -- -- 100
2020-08-31 03:00:00 9.3 0 Calma 5 Oeste 0 -- -- 99
2020-08-31 02:00:00 9.5 0 Calma 4 Nordeste 0 -- -- 99
2020-08-31 01:00:00 10.1 0 Calma 3 Nordeste 0 -- -- 97
2020-08-31 00:00:00 10.8 0 Calma 4 Nordeste 0 -- -- 95
2020-08-30 23:00:00 12 0 Calma 6 Norte 0 -- -- 94
2020-08-30 22:00:00 12.8 0 Calma 8 Norte 0 -- -- 88
2020-08-30 21:00:00 14.5 5 Norte 12 Norte 0 -- -- 82
2020-08-30 20:00:00 15.8 9 Norte 14 Norte 0 -- -- 76
2020-08-30 19:00:00 17.6 6 Nordeste 13 Nordeste 0 -- -- 66
2020-08-30 18:00:00 17.3 8 Sudeste 19 Nordeste 0 -- -- 70
2020-08-30 17:00:00 18.6 8 Este 17 Este 0 -- -- 66
2020-08-30 16:00:00 18.2 8 Nordeste 15 Este 0 -- -- 68
2020-08-30 15:00:00 16.3 6 Nordeste 21 Nordeste 0 -- -- 76
2020-08-30 14:00:00 15.6 8 Nordeste 18 Norte 0 -- -- 83
2020-08-30 13:00:00 15.7 5 Sur 10 Este 0 -- -- 86
2020-08-30 12:00:00 14.2 3 Este 15 Nordeste 0.2 -- -- 90
2020-08-30 11:00:00 14.5 8 Noroeste 19 Noroeste 0 -- -- 83
2020-08-30 10:00:00 13.2 3 Sur 8 Oeste 0 -- -- 95
2020-08-30 09:00:00 10.9 0 Calma 8 Oeste 0.4 -- -- 100
2020-08-30 08:00:00 10.5 4 Noroeste 13 Nordeste 0.2 -- -- 100
2020-08-30 07:00:00 10.3 0 Calma 8 Oeste 0 -- -- 99
2020-08-30 06:00:00 11.4 4 Oeste 8 Oeste 0 -- -- 100
2020-08-30 05:00:00 11.4 3 Oeste 7 Sudoeste 0 -- -- 99
2020-08-30 04:00:00 12.1 2 Oeste 8 Oeste 0.2 -- -- 99
2020-08-30 03:00:00 12.1 3 Oeste 8 Oeste 0 -- -- 99
2020-08-30 02:00:00 12.2 2 Norte 9 Sur 2.4 -- -- 99
2020-08-30 01:00:00 12.1 2 Norte 9 Sudoeste 0.8 -- -- 99
2020-08-30 00:00:00 12.1 3 Oeste 9 Oeste 2.2 -- -- 99
2020-08-29 23:00:00 12.3 0 Calma 6 Oeste 0 -- -- 99
2020-08-29 22:00:00 13.4 3 Nordeste 12 Nordeste 1 -- -- 99
2020-08-29 21:00:00 13.6 5 Sudoeste 13 Nordeste 3.6 -- -- 96
2020-08-29 20:00:00 15.4 2 Noroeste 8 Oeste 0.2 -- -- 92
2020-08-29 19:00:00 14.8 3 Oeste 10 Este 0 -- -- 94
2020-08-29 18:00:00 14.4 7 Nordeste 22 Norte 6.4 -- -- 93
2020-08-29 17:00:00 16.4 3 Sur 17 Este 0.4 -- -- 88
2020-08-29 16:00:00 15.4 3 Oeste 27 Oeste 3.8 -- -- 93
2020-08-29 15:00:00 16.8 6 Sudoeste 13 Sudoeste 0.4 -- -- 85
2020-08-29 14:00:00 14.9 12 Nordeste 27 Este 6.2 -- -- 94
2020-08-29 13:00:00 15.3 4 Sur 19 Nordeste 4.2 -- -- 94
2020-08-29 12:00:00 14.3 4 Norte 18 Sudoeste 3.4 -- -- 98
2020-08-29 11:00:00 13.8 4 Sudoeste 9 Este 3.6 -- -- 99
2020-08-29 10:00:00 13.3 5 Sudoeste 10 Sur 2.6 -- -- 98
2020-08-29 09:00:00 13 2 Sudoeste 12 Nordeste 3.6 -- -- 98
2020-08-29 08:00:00 13 3 Noroeste 12 Sudoeste 3.4 -- -- 97
2020-08-29 07:00:00 13.1 4 Oeste 14 Sudoeste 1.2 -- -- 96
2020-08-29 06:00:00 12.8 7 Oeste 14 Oeste 0.2 -- -- 97
2020-08-29 05:00:00 13 3 Oeste 9 Sur 1.6 -- -- 98
2020-08-29 04:00:00 13 0 Calma 6 Norte 2.4 -- -- 98
2020-08-29 03:00:00 13 5 Norte 16 Sudoeste 2.4 -- -- 97
2020-08-29 02:00:00 13.1 3 Nordeste 20 Oeste 1.2 -- -- 96
2020-08-29 01:00:00 13.4 6 Oeste 16 Oeste 0.6 -- -- 92
2020-08-29 00:00:00 13.5 5 Norte 8 Noroeste 0.6 -- -- 91
2020-08-28 23:00:00 13.8 2 Noroeste 13 Norte 0 -- -- 85
2020-08-28 22:00:00 14.3 5 Noroeste 21 Oeste 0 -- -- 82
2020-08-28 21:00:00 15.9 8 Oeste 21 Oeste 0 -- -- 74
2020-08-28 20:00:00 16.5 6 Sur 20 Oeste 0 -- -- 73
2020-08-28 19:00:00 18.4 6 Sudeste 34 Oeste 0 -- -- 63
2020-08-28 18:00:00 19.8 13 Oeste 32 Oeste 0 -- -- 59
2020-08-28 17:00:00 19.9 11 Oeste 28 Oeste 0 -- -- 60
2020-08-28 16:00:00 21.1 10 Oeste 36 Noroeste 0 -- -- 58
2020-08-28 15:00:00 21 15 Oeste 35 Oeste 0 -- -- 55
2020-08-28 14:00:00 20.4 11 Oeste 27 Oeste 0 -- -- 60
2020-08-28 13:00:00 19.9 11 Oeste 28 Oeste 0 -- -- 60
2020-08-28 12:00:00 18.7 9 Oeste 25 Oeste 0 -- -- 64
2020-08-28 11:00:00 20 12 Oeste 26 Oeste 0 -- -- 58
2020-08-28 10:00:00 17.9 13 Oeste 24 Oeste 0 -- -- 68
2020-08-28 09:00:00 15.5 7 Oeste 16 Oeste 0 -- -- 79
2020-08-28 08:00:00 14.3 10 Oeste 18 Oeste 0 -- -- 83
2020-08-28 07:00:00 15.2 5 Sudoeste 21 Oeste 0 -- -- 79
2020-08-28 06:00:00 16 4 Sur 16 Sudoeste 0 -- -- 78
2020-08-28 05:00:00 17 4 Sudeste 9 Sudoeste 0 -- -- 87
2020-08-28 04:00:00 17.6 2 Sur 11 Oeste 0 -- -- 88
2020-08-28 03:00:00 18.1 5 Oeste 18 Oeste 0 -- -- 89
2020-08-28 02:00:00 18.3 3 Norte 12 Oeste 0 -- -- 93
2020-08-28 01:00:00 18.6 3 Noroeste 15 Oeste 0 -- -- 89
2020-08-28 00:00:00 19.7 3 Este 10 Norte 0 -- -- 88